메인 페이지
METAR-TAF:

METAR-TAF

공항 :

두바이 국제공항

두바이, 아랍에미리트

위도: 25-15-10N, 경도: 055-21-52E, 고도: 8m

현재 날씨관측

예보는 48분 전, 09:00시(UTC)에 발표되었습니다.
11kt서남서풍과 서북서풍을 오가는
온도 34°C
습도 41%
기압 1013 hPa
시정 10km 이상
1500m 미만 상공 구름 및 적란운 없음

METAR: OMDB 150900Z 27011KT 240V300 CAVOK 34/19 Q1013 NOSIG

시각: 13:48 (09:48 UTC)

예보

예보는 4 시간 52분 전, 04:56시(UTC)에 발표되었습니다.
예보 대상 시간: 15일 06시부터 16일 12시까지 (UTC)
남서8kt
시정 10km 이상
1500m 미만 상공 구름 및 적란운 없음
전환 중
15일 06시부터 15일 08시까지 (UTC)
서북서13kt
확률 30% :
일시적
15일 11시부터 15일 15시까지 (UTC)
여러 방향의 바람 20kt, 순간 최대 풍속 30kt
시정: 1500m
고도 5000ft 상공 구름 조금, 적란운.
날린먼지
전환 중
15일 16시부터 15일 18시까지 (UTC)
남동5kt
전환 중
16일 07시부터 16일 09시까지 (UTC)
북서12kt

TAF: OMDB 150456Z 1506/1612 22008KT CAVOK BECMG 1506/1508 29013KT PROB30 TEMPO 1511/1515 VRB20G30KT 1500 BLDU FEW050CB BECMG 1516/1518 14005KT BECMG 1607/1609 32012KT

4,000개 이상의 공항 관측 자료 및 예보 (METAR 및 TAF 보고).

지도상에서 검색 가능한 기상관측소가 노란 점과 빨간 점으로 표시되어 있습니다.

기상관측소 명을 보려면 표시 위로 마우스를 이동하세요.

날씨 관측과 예보를 보려면 클릭하세요.

지도 변경 : 확대하려면 엑스 표시가 있는 녹색 버튼, 축소하려면 빼기 표시가 있는 녹색 버튼, 다음 페이지의 지도를 보려면 녹색 화살표를 클릭하세요.


METAR-TAF: